Terminal Aerodrome Forecast
Issued by NWS Charleston, WV

Current Version | Previous Version | Graphics & Text | Print | Product List | Glossary On
Versions: 1 2 3 4 5 6 7 8 9 10 11 12 13 14 15 16 17 18 19 20
000
FTUS41 KRLX 040200 AAA
TAFHTS
TAF AMD
KHTS 040237Z 0403/0424 22009G22KT P6SM BKN025 OVC035
      TEMPO 0404/0406 4SM -RA BR SCT012
     FM040600 21009KT 2SM -RA BR OVC008
     FM041200 VRB03KT 1SM -RA BR OVC003
     FM041400 33004KT 3/4SM -RA BR OVC003=

USA.gov is the U.S. government's official web portal to all federal, state and local government web resources and services.